sensor_id;sensor_type;location;lat;lon;timestamp;P1;durP1;ratioP1;P2;durP2;ratioP2
19560;SDS011;9927;47.792;10.616;2023-04-25T03:01:19;4.70;;;4.40;;
19560;SDS011;9927;47.792;10.616;2023-04-25T03:03:47;5.13;;;4.73;;
19560;SDS011;9927;47.792;10.616;2023-04-25T03:06:15;4.70;;;4.40;;
19560;SDS011;9927;47.792;10.616;2023-04-25T03:08:42;5.20;;;4.80;;
19560;SDS011;9927;47.792;10.616;2023-04-25T03:11:10;4.80;;;4.50;;
19560;SDS011;9927;47.792;10.616;2023-04-25T03:13:37;5.03;;;4.60;;
19560;SDS011;9927;47.792;10.616;2023-04-25T03:16:04;14.27;;;6.07;;
19560;SDS011;9927;47.792;10.616;2023-04-25T03:18:32;4.90;;;4.60;;
19560;SDS011;9927;47.792;10.616;2023-04-25T03:20:59;4.47;;;4.20;;
19560;SDS011;9927;47.792;10.616;2023-04-25T03:23:26;5.13;;;4.73;;
19560;SDS011;9927;47.792;10.616;2023-04-25T03:25:53;4.77;;;4.40;;
19560;SDS011;9927;47.792;10.616;2023-04-25T03:28:21;5.07;;;4.77;;
19560;SDS011;9927;47.792;10.616;2023-04-25T03:30:48;4.50;;;4.20;;
19560;SDS011;9927;47.792;10.616;2023-04-25T03:33:15;4.67;;;4.37;;
19560;SDS011;9927;47.792;10.616;2023-04-25T03:35:43;4.67;;;4.40;;
19560;SDS011;9927;47.792;10.616;2023-04-25T03:38:10;4.70;;;4.40;;
19560;SDS011;9927;47.792;10.616;2023-04-25T03:40:37;6.80;;;5.10;;
19560;SDS011;9927;47.792;10.616;2023-04-25T03:43:04;5.50;;;5.20;;
19560;SDS011;9927;47.792;10.616;2023-04-25T03:45:31;5.60;;;5.20;;
19560;SDS011;9927;47.792;10.616;2023-04-25T03:47:59;6.10;;;5.60;;
19560;SDS011;9927;47.792;10.616;2023-04-25T03:50:26;6.43;;;5.93;;
19560;SDS011;9927;47.792;10.616;2023-04-25T03:52:54;6.57;;;6.07;;
19560;SDS011;9927;47.792;10.616;2023-04-25T03:55:21;6.80;;;6.30;;
19560;SDS011;9927;47.792;10.616;2023-04-25T03:57:48;5.77;;;5.43;;
19560;SDS011;9927;47.792;10.616;2023-04-25T04:00:15;6.90;;;6.20;;
19560;SDS011;9927;47.792;10.616;2023-04-25T04:02:43;6.90;;;6.30;;
19560;SDS011;9927;47.792;10.616;2023-04-25T04:05:11;7.17;;;6.50;;
19560;SDS011;9927;47.792;10.616;2023-04-25T04:07:39;8.03;;;7.23;;
19560;SDS011;9927;47.792;10.616;2023-04-25T04:10:06;6.57;;;6.07;;
19560;SDS011;9927;47.792;10.616;2023-04-25T04:12:34;6.30;;;5.90;;
19560;SDS011;9927;47.792;10.616;2023-04-25T04:15:02;7.00;;;6.40;;
19560;SDS011;9927;47.792;10.616;2023-04-25T04:17:31;6.30;;;5.90;;
19560;SDS011;9927;47.792;10.616;2023-04-25T04:19:58;6.33;;;5.70;;
19560;SDS011;9927;47.792;10.616;2023-04-25T04:22:26;5.87;;;5.37;;
19560;SDS011;9927;47.792;10.616;2023-04-25T04:24:53;6.63;;;6.03;;
19560;SDS011;9927;47.792;10.616;2023-04-25T04:27:21;6.40;;;5.80;;
19560;SDS011;9927;47.792;10.616;2023-04-25T04:29:49;5.83;;;5.53;;
19560;SDS011;9927;47.792;10.616;2023-04-25T04:32:18;5.70;;;5.30;;
19560;SDS011;9927;47.792;10.616;2023-04-25T04:34:45;6.00;;;5.60;;
19560;SDS011;9927;47.792;10.616;2023-04-25T04:37:14;5.97;;;5.50;;
19560;SDS011;9927;47.792;10.616;2023-04-25T04:39:41;9.10;;;6.00;;
19560;SDS011;9927;47.792;10.616;2023-04-25T04:42:08;6.57;;;6.07;;
19560;SDS011;9927;47.792;10.616;2023-04-25T04:44:38;6.83;;;6.13;;
19560;SDS011;9927;47.792;10.616;2023-04-25T04:47:05;6.50;;;6.00;;
19560;SDS011;9927;47.792;10.616;2023-04-25T04:49:32;7.63;;;6.80;;
19560;SDS011;9927;47.792;10.616;2023-04-25T04:52:00;7.50;;;6.80;;
19560;SDS011;9927;47.792;10.616;2023-04-25T04:54:27;7.53;;;6.83;;
19560;SDS011;9927;47.792;10.616;2023-04-25T04:56:54;7.17;;;6.53;;
19560;SDS011;9927;47.792;10.616;2023-04-25T04:59:21;7.43;;;6.73;;
19560;SDS011;9927;47.792;10.616;2023-04-25T05:01:49;7.17;;;6.17;;
19560;SDS011;9927;47.792;10.616;2023-04-25T05:04:16;7.33;;;6.70;;
19560;SDS011;9927;47.792;10.616;2023-04-25T05:06:43;9.43;;;8.03;;
19560;SDS011;9927;47.792;10.616;2023-04-25T05:09:14;8.73;;;7.20;;
19560;SDS011;9927;47.792;10.616;2023-04-25T05:11:41;7.63;;;6.83;;
19560;SDS011;9927;47.792;10.616;2023-04-25T05:14:08;7.97;;;7.23;;
19560;SDS011;9927;47.792;10.616;2023-04-25T05:16:36;8.23;;;7.60;;
19560;SDS011;9927;47.792;10.616;2023-04-25T05:19:03;8.27;;;7.43;;
19560;SDS011;9927;47.792;10.616;2023-04-25T05:21:30;7.67;;;6.63;;
19560;SDS011;9927;47.792;10.616;2023-04-25T05:23:58;7.37;;;6.77;;
19560;SDS011;9927;47.792;10.616;2023-04-25T05:26:25;7.70;;;7.00;;
19560;SDS011;9927;47.792;10.616;2023-04-25T05:28:52;8.13;;;6.93;;
19560;SDS011;9927;47.792;10.616;2023-04-25T05:31:19;7.47;;;6.77;;
19560;SDS011;9927;47.792;10.616;2023-04-25T05:33:46;7.67;;;6.83;;
19560;SDS011;9927;47.792;10.616;2023-04-25T05:36:14;8.57;;;6.93;;
19560;SDS011;9927;47.792;10.616;2023-04-25T05:38:41;8.15;;;7.35;;
19560;SDS011;9927;47.792;10.616;2023-04-25T05:41:09;8.52;;;6.50;;
19560;SDS011;9927;47.792;10.616;2023-04-25T05:43:36;7.38;;;6.65;;
19560;SDS011;9927;47.792;10.616;2023-04-25T05:46:03;6.03;;;5.57;;
19560;SDS011;9927;47.792;10.616;2023-04-25T05:48:31;6.63;;;6.03;;
19560;SDS011;9927;47.792;10.616;2023-04-25T05:50:58;8.48;;;5.43;;
19560;SDS011;9927;47.792;10.616;2023-04-25T05:53:25;6.70;;;6.10;;
19560;SDS011;9927;47.792;10.616;2023-04-25T05:55:53;6.30;;;5.70;;
19560;SDS011;9927;47.792;10.616;2023-04-25T05:58:20;6.05;;;5.50;;
19560;SDS011;9927;47.792;10.616;2023-04-25T06:00:47;5.97;;;5.38;;
19560;SDS011;9927;47.792;10.616;2023-04-25T06:03:14;6.18;;;5.68;;
19560;SDS011;9927;47.792;10.616;2023-04-25T06:05:46;5.30;;;4.90;;
19560;SDS011;9927;47.792;10.616;2023-04-25T06:08:14;6.10;;;5.55;;
19560;SDS011;9927;47.792;10.616;2023-04-25T06:10:41;6.03;;;5.43;;
19560;SDS011;9927;47.792;10.616;2023-04-25T06:13:08;5.57;;;5.07;;
19560;SDS011;9927;47.792;10.616;2023-04-25T06:15:35;6.72;;;5.47;;
19560;SDS011;9927;47.792;10.616;2023-04-25T06:18:02;5.97;;;5.35;;
19560;SDS011;9927;47.792;10.616;2023-04-25T06:20:30;7.80;;;5.35;;
19560;SDS011;9927;47.792;10.616;2023-04-25T06:22:57;6.22;;;5.63;;
19560;SDS011;9927;47.792;10.616;2023-04-25T06:25:24;5.82;;;5.28;;
19560;SDS011;9927;47.792;10.616;2023-04-25T06:27:51;8.13;;;5.40;;
19560;SDS011;9927;47.792;10.616;2023-04-25T06:30:18;5.80;;;5.25;;
19560;SDS011;9927;47.792;10.616;2023-04-25T06:32:49;6.80;;;5.47;;
19560;SDS011;9927;47.792;10.616;2023-04-25T06:35:16;6.78;;;5.80;;
19560;SDS011;9927;47.792;10.616;2023-04-25T06:37:43;6.63;;;5.25;;
19560;SDS011;9927;47.792;10.616;2023-04-25T06:40:11;6.65;;;5.50;;
19560;SDS011;9927;47.792;10.616;2023-04-25T06:42:38;6.10;;;5.50;;
19560;SDS011;9927;47.792;10.616;2023-04-25T06:45:05;8.15;;;6.22;;
19560;SDS011;9927;47.792;10.616;2023-04-25T06:47:33;6.97;;;6.13;;
19560;SDS011;9927;47.792;10.616;2023-04-25T06:50:00;6.18;;;5.57;;
19560;SDS011;9927;47.792;10.616;2023-04-25T06:52:27;5.97;;;5.47;;
19560;SDS011;9927;47.792;10.616;2023-04-25T06:54:54;6.13;;;5.05;;
19560;SDS011;9927;47.792;10.616;2023-04-25T06:57:22;5.57;;;5.03;;
19560;SDS011;9927;47.792;10.616;2023-04-25T06:59:49;6.00;;;5.40;;
19560;SDS011;9927;47.792;10.616;2023-04-25T07:02:16;6.80;;;5.22;;
19560;SDS011;9927;47.792;10.616;2023-04-25T07:04:43;5.63;;;5.07;;
19560;SDS011;9927;47.792;10.616;2023-04-25T07:07:12;4.82;;;4.30;;
19560;SDS011;9927;47.792;10.616;2023-04-25T07:09:40;4.47;;;4.15;;
19560;SDS011;9927;47.792;10.616;2023-04-25T07:12:07;4.57;;;4.10;;
19560;SDS011;9927;47.792;10.616;2023-04-25T07:14:34;4.53;;;4.15;;
19560;SDS011;9927;47.792;10.616;2023-04-25T07:17:01;5.05;;;3.80;;
19560;SDS011;9927;47.792;10.616;2023-04-25T07:19:28;3.83;;;3.33;;
19560;SDS011;9927;47.792;10.616;2023-04-25T07:21:56;4.65;;;4.28;;
19560;SDS011;9927;47.792;10.616;2023-04-25T07:24:23;4.32;;;3.42;;
19560;SDS011;9927;47.792;10.616;2023-04-25T07:26:50;3.58;;;3.20;;
19560;SDS011;9927;47.792;10.616;2023-04-25T07:29:17;4.38;;;3.42;;
19560;SDS011;9927;47.792;10.616;2023-04-25T07:31:45;3.20;;;2.95;;
19560;SDS011;9927;47.792;10.616;2023-04-25T07:34:12;5.32;;;3.80;;
19560;SDS011;9927;47.792;10.616;2023-04-25T07:36:39;4.25;;;3.78;;
19560;SDS011;9927;47.792;10.616;2023-04-25T07:39:07;3.83;;;3.40;;
19560;SDS011;9927;47.792;10.616;2023-04-25T07:41:35;5.47;;;4.30;;
19560;SDS011;9927;47.792;10.616;2023-04-25T07:44:03;5.90;;;3.78;;
19560;SDS011;9927;47.792;10.616;2023-04-25T07:46:30;10.10;;;3.80;;
19560;SDS011;9927;47.792;10.616;2023-04-25T07:48:57;4.13;;;3.80;;
19560;SDS011;9927;47.792;10.616;2023-04-25T07:51:24;5.47;;;3.15;;
19560;SDS011;9927;47.792;10.616;2023-04-25T07:53:52;3.45;;;2.92;;
19560;SDS011;9927;47.792;10.616;2023-04-25T07:56:19;8.38;;;3.30;;
19560;SDS011;9927;47.792;10.616;2023-04-25T07:58:46;3.38;;;3.08;;
19560;SDS011;9927;47.792;10.616;2023-04-25T08:01:14;3.50;;;3.25;;
19560;SDS011;9927;47.792;10.616;2023-04-25T08:03:41;4.78;;;3.47;;
19560;SDS011;9927;47.792;10.616;2023-04-25T08:06:09;3.80;;;3.50;;
19560;SDS011;9927;47.792;10.616;2023-04-25T08:08:36;3.35;;;3.13;;
19560;SDS011;9927;47.792;10.616;2023-04-25T08:11:04;4.45;;;3.80;;
19560;SDS011;9927;47.792;10.616;2023-04-25T08:13:31;3.50;;;3.20;;
19560;SDS011;9927;47.792;10.616;2023-04-25T08:15:58;6.45;;;4.63;;
19560;SDS011;9927;47.792;10.616;2023-04-25T08:18:25;4.47;;;4.05;;
19560;SDS011;9927;47.792;10.616;2023-04-25T08:20:53;4.65;;;3.80;;
19560;SDS011;9927;47.792;10.616;2023-04-25T08:23:20;4.88;;;4.40;;
19560;SDS011;9927;47.792;10.616;2023-04-25T08:25:47;6.82;;;3.92;;
19560;SDS011;9927;47.792;10.616;2023-04-25T08:28:14;4.07;;;3.67;;
19560;SDS011;9927;47.792;10.616;2023-04-25T08:30:42;4.20;;;3.30;;
19560;SDS011;9927;47.792;10.616;2023-04-25T08:33:09;4.70;;;3.50;;
19560;SDS011;9927;47.792;10.616;2023-04-25T08:35:38;3.92;;;3.40;;
19560;SDS011;9927;47.792;10.616;2023-04-25T08:38:05;3.55;;;3.38;;
19560;SDS011;9927;47.792;10.616;2023-04-25T08:40:32;5.47;;;3.55;;
19560;SDS011;9927;47.792;10.616;2023-04-25T08:43:04;5.43;;;3.30;;
19560;SDS011;9927;47.792;10.616;2023-04-25T08:45:41;3.35;;;3.15;;
19560;SDS011;9927;47.792;10.616;2023-04-25T08:48:11;5.43;;;3.80;;
19560;SDS011;9927;47.792;10.616;2023-04-25T08:50:40;4.22;;;3.65;;
19560;SDS011;9927;47.792;10.616;2023-04-25T08:53:12;4.93;;;3.58;;
19560;SDS011;9927;47.792;10.616;2023-04-25T08:55:45;3.65;;;3.45;;
19560;SDS011;9927;47.792;10.616;2023-04-25T08:58:13;3.63;;;3.30;;
19560;SDS011;9927;47.792;10.616;2023-04-25T09:00:41;5.63;;;3.70;;
19560;SDS011;9927;47.792;10.616;2023-04-25T09:03:08;3.58;;;3.25;;
19560;SDS011;9927;47.792;10.616;2023-04-25T09:05:37;3.60;;;3.33;;
19560;SDS011;9927;47.792;10.616;2023-04-25T09:08:06;4.18;;;3.72;;
19560;SDS011;9927;47.792;10.616;2023-04-25T09:10:34;6.00;;;3.55;;
19560;SDS011;9927;47.792;10.616;2023-04-25T09:13:12;5.13;;;3.50;;
19560;SDS011;9927;47.792;10.616;2023-04-25T09:15:50;4.38;;;3.60;;
19560;SDS011;9927;47.792;10.616;2023-04-25T09:18:25;3.78;;;3.45;;
19560;SDS011;9927;47.792;10.616;2023-04-25T09:20:57;3.67;;;3.35;;
19560;SDS011;9927;47.792;10.616;2023-04-25T09:23:41;3.17;;;2.92;;
19560;SDS011;9927;47.792;10.616;2023-04-25T09:26:15;5.82;;;3.83;;
19560;SDS011;9927;47.792;10.616;2023-04-25T09:28:47;3.85;;;3.55;;
19560;SDS011;9927;47.792;10.616;2023-04-25T09:31:23;4.88;;;3.90;;
19560;SDS011;9927;47.792;10.616;2023-04-25T09:33:59;4.57;;;4.18;;
19560;SDS011;9927;47.792;10.616;2023-04-25T09:36:30;5.00;;;4.40;;
19560;SDS011;9927;47.792;10.616;2023-04-25T09:38:57;7.38;;;4.18;;
19560;SDS011;9927;47.792;10.616;2023-04-25T09:41:27;5.18;;;4.40;;
19560;SDS011;9927;47.792;10.616;2023-04-25T09:43:56;6.70;;;4.47;;
19560;SDS011;9927;47.792;10.616;2023-04-25T09:46:25;4.78;;;4.40;;
19560;SDS011;9927;47.792;10.616;2023-04-25T09:49:08;4.68;;;4.22;;
19560;SDS011;9927;47.792;10.616;2023-04-25T09:51:35;4.18;;;3.78;;
19560;SDS011;9927;47.792;10.616;2023-04-25T09:54:03;3.80;;;3.58;;
19560;SDS011;9927;47.792;10.616;2023-04-25T09:56:30;3.88;;;3.58;;
19560;SDS011;9927;47.792;10.616;2023-04-25T09:59:02;4.10;;;3.80;;
19560;SDS011;9927;47.792;10.616;2023-04-25T10:01:30;4.55;;;4.15;;
19560;SDS011;9927;47.792;10.616;2023-04-25T10:03:58;4.72;;;4.43;;
19560;SDS011;9927;47.792;10.616;2023-04-25T10:06:27;4.43;;;4.13;;
19560;SDS011;9927;47.792;10.616;2023-04-25T10:08:56;7.10;;;4.90;;
19560;SDS011;9927;47.792;10.616;2023-04-25T10:11:24;4.55;;;4.18;;
19560;SDS011;9927;47.792;10.616;2023-04-25T10:13:52;4.20;;;3.90;;
19560;SDS011;9927;47.792;10.616;2023-04-25T10:16:20;4.45;;;4.15;;
19560;SDS011;9927;47.792;10.616;2023-04-25T10:18:48;6.18;;;4.15;;
19560;SDS011;9927;47.792;10.616;2023-04-25T10:21:17;4.78;;;4.32;;
19560;SDS011;9927;47.792;10.616;2023-04-25T10:23:45;3.65;;;3.47;;
19560;SDS011;9927;47.792;10.616;2023-04-25T10:26:12;3.83;;;3.60;;
19560;SDS011;9927;47.792;10.616;2023-04-25T10:29:15;3.92;;;3.60;;
19560;SDS011;9927;47.792;10.616;2023-04-25T10:31:44;5.57;;;4.90;;
19560;SDS011;9927;47.792;10.616;2023-04-25T10:34:13;3.92;;;3.72;;
19560;SDS011;9927;47.792;10.616;2023-04-25T10:36:42;3.92;;;3.72;;
19560;SDS011;9927;47.792;10.616;2023-04-25T10:39:09;3.20;;;3.10;;
19560;SDS011;9927;47.792;10.616;2023-04-25T10:41:46;3.53;;;3.33;;
19560;SDS011;9927;47.792;10.616;2023-04-25T10:44:17;3.92;;;3.60;;
19560;SDS011;9927;47.792;10.616;2023-04-25T10:46:45;3.72;;;3.42;;
19560;SDS011;9927;47.792;10.616;2023-04-25T10:49:28;3.13;;;3.03;;
19560;SDS011;9927;47.792;10.616;2023-04-25T10:54:47;3.20;;;3.10;;
19560;SDS011;9927;47.792;10.616;2023-04-25T10:57:28;4.18;;;3.55;;
19560;SDS011;9927;47.792;10.616;2023-04-25T11:00:09;4.03;;;3.80;;
19560;SDS011;9927;47.792;10.616;2023-04-25T11:02:45;3.00;;;2.90;;
19560;SDS011;9927;47.792;10.616;2023-04-25T11:05:34;3.65;;;3.45;;
19560;SDS011;9927;47.792;10.616;2023-04-25T11:08:26;3.60;;;3.40;;
19560;SDS011;9927;47.792;10.616;2023-04-25T11:11:17;3.30;;;3.20;;
19560;SDS011;9927;47.792;10.616;2023-04-25T11:13:49;3.30;;;3.20;;
19560;SDS011;9927;47.792;10.616;2023-04-25T11:16:17;3.00;;;2.90;;
19560;SDS011;9927;47.792;10.616;2023-04-25T11:18:56;2.97;;;2.88;;
19560;SDS011;9927;47.792;10.616;2023-04-25T11:21:27;2.63;;;2.60;;
19560;SDS011;9927;47.792;10.616;2023-04-25T11:23:56;2.50;;;2.40;;
19560;SDS011;9927;47.792;10.616;2023-04-25T11:26:24;3.35;;;3.15;;
19560;SDS011;9927;47.792;10.616;2023-04-25T11:28:51;3.00;;;2.90;;
19560;SDS011;9927;47.792;10.616;2023-04-25T11:31:25;2.70;;;2.60;;
19560;SDS011;9927;47.792;10.616;2023-04-25T11:33:53;3.08;;;2.97;;
19560;SDS011;9927;47.792;10.616;2023-04-25T11:36:23;2.70;;;2.60;;
19560;SDS011;9927;47.792;10.616;2023-04-25T11:38:52;2.80;;;2.70;;
19560;SDS011;9927;47.792;10.616;2023-04-25T11:41:20;2.85;;;2.75;;
19560;SDS011;9927;47.792;10.616;2023-04-25T11:43:48;2.50;;;2.50;;
19560;SDS011;9927;47.792;10.616;2023-04-25T11:46:18;2.47;;;2.47;;
19560;SDS011;9927;47.792;10.616;2023-04-25T11:48:46;2.50;;;2.50;;
19560;SDS011;9927;47.792;10.616;2023-04-25T11:51:14;2.22;;;2.22;;
19560;SDS011;9927;47.792;10.616;2023-04-25T11:53:42;2.20;;;2.20;;
19560;SDS011;9927;47.792;10.616;2023-04-25T11:56:11;2.10;;;2.10;;
19560;SDS011;9927;47.792;10.616;2023-04-25T11:58:57;2.60;;;2.50;;
19560;SDS011;9927;47.792;10.616;2023-04-25T12:06:52;2.95;;;2.75;;
19560;SDS011;9927;47.792;10.616;2023-04-25T12:09:23;2.60;;;2.50;;
19560;SDS011;9927;47.792;10.616;2023-04-25T12:11:56;2.90;;;2.80;;
19560;SDS011;9927;47.792;10.616;2023-04-25T12:14:34;2.85;;;2.75;;
19560;SDS011;9927;47.792;10.616;2023-04-25T12:17:03;4.85;;;3.20;;
19560;SDS011;9927;47.792;10.616;2023-04-25T12:19:34;3.20;;;3.00;;
19560;SDS011;9927;47.792;10.616;2023-04-25T12:22:03;2.63;;;2.60;;
19560;SDS011;9927;47.792;10.616;2023-04-25T12:24:49;3.00;;;2.90;;
19560;SDS011;9927;47.792;10.616;2023-04-25T12:27:17;2.90;;;2.80;;
19560;SDS011;9927;47.792;10.616;2023-04-25T12:29:50;2.50;;;2.50;;
19560;SDS011;9927;47.792;10.616;2023-04-25T12:32:22;2.85;;;2.75;;
19560;SDS011;9927;47.792;10.616;2023-04-25T12:34:49;3.30;;;3.10;;
19560;SDS011;9927;47.792;10.616;2023-04-25T12:37:17;4.50;;;4.15;;
19560;SDS011;9927;47.792;10.616;2023-04-25T12:39:44;3.50;;;3.20;;
19560;SDS011;9927;47.792;10.616;2023-04-25T12:42:11;3.10;;;3.00;;
19560;SDS011;9927;47.792;10.616;2023-04-25T12:44:39;3.30;;;3.10;;
19560;SDS011;9927;47.792;10.616;2023-04-25T12:47:07;3.27;;;3.10;;
19560;SDS011;9927;47.792;10.616;2023-04-25T12:49:34;3.07;;;2.97;;
19560;SDS011;9927;47.792;10.616;2023-04-25T12:52:02;3.00;;;2.90;;
19560;SDS011;9927;47.792;10.616;2023-04-25T12:54:29;3.20;;;3.10;;
19560;SDS011;9927;47.792;10.616;2023-04-25T12:56:56;2.90;;;2.80;;
19560;SDS011;9927;47.792;10.616;2023-04-25T12:59:24;3.22;;;3.13;;
19560;SDS011;9927;47.792;10.616;2023-04-25T13:01:52;3.10;;;3.00;;
19560;SDS011;9927;47.792;10.616;2023-04-25T13:04:19;2.40;;;2.40;;
19560;SDS011;9927;47.792;10.616;2023-04-25T13:06:48;2.92;;;2.92;;
19560;SDS011;9927;47.792;10.616;2023-04-25T13:09:15;2.90;;;2.80;;
19560;SDS011;9927;47.792;10.616;2023-04-25T13:11:42;2.95;;;2.90;;
19560;SDS011;9927;47.792;10.616;2023-04-25T13:14:10;2.83;;;2.80;;
19560;SDS011;9927;47.792;10.616;2023-04-25T13:16:37;3.00;;;2.90;;
19560;SDS011;9927;47.792;10.616;2023-04-25T13:19:04;2.70;;;2.70;;
19560;SDS011;9927;47.792;10.616;2023-04-25T13:21:34;2.60;;;2.60;;
19560;SDS011;9927;47.792;10.616;2023-04-25T13:24:01;2.90;;;2.80;;
19560;SDS011;9927;47.792;10.616;2023-04-25T13:26:30;2.80;;;2.70;;
19560;SDS011;9927;47.792;10.616;2023-04-25T13:28:57;2.40;;;2.40;;
19560;SDS011;9927;47.792;10.616;2023-04-25T13:31:24;2.85;;;2.80;;
19560;SDS011;9927;47.792;10.616;2023-04-25T13:33:51;2.95;;;2.85;;
19560;SDS011;9927;47.792;10.616;2023-04-25T13:36:19;2.55;;;2.50;;
19560;SDS011;9927;47.792;10.616;2023-04-25T13:38:47;2.67;;;2.67;;
19560;SDS011;9927;47.792;10.616;2023-04-25T13:41:16;2.53;;;2.53;;
19560;SDS011;9927;47.792;10.616;2023-04-25T13:43:46;3.00;;;2.90;;
19560;SDS011;9927;47.792;10.616;2023-04-25T13:46:15;2.50;;;2.40;;
19560;SDS011;9927;47.792;10.616;2023-04-25T13:49:01;2.78;;;2.67;;
19560;SDS011;9927;47.792;10.616;2023-04-25T13:51:38;2.85;;;2.85;;
19560;SDS011;9927;47.792;10.616;2023-04-25T13:54:05;2.80;;;2.70;;
19560;SDS011;9927;47.792;10.616;2023-04-25T13:56:33;2.40;;;2.40;;
19560;SDS011;9927;47.792;10.616;2023-04-25T13:59:00;2.60;;;2.50;;
19560;SDS011;9927;47.792;10.616;2023-04-25T14:01:27;2.42;;;2.42;;
19560;SDS011;9927;47.792;10.616;2023-04-25T14:03:57;2.30;;;2.30;;
19560;SDS011;9927;47.792;10.616;2023-04-25T14:06:24;2.72;;;2.60;;
19560;SDS011;9927;47.792;10.616;2023-04-25T14:08:53;2.60;;;2.60;;
19560;SDS011;9927;47.792;10.616;2023-04-25T14:11:20;2.55;;;2.55;;
19560;SDS011;9927;47.792;10.616;2023-04-25T14:13:48;2.60;;;2.60;;
19560;SDS011;9927;47.792;10.616;2023-04-25T14:16:16;2.50;;;2.50;;
19560;SDS011;9927;47.792;10.616;2023-04-25T14:18:43;2.00;;;1.90;;
19560;SDS011;9927;47.792;10.616;2023-04-25T14:21:11;2.22;;;2.22;;
19560;SDS011;9927;47.792;10.616;2023-04-25T14:23:38;2.40;;;2.40;;
19560;SDS011;9927;47.792;10.616;2023-04-25T14:26:05;2.40;;;2.40;;
19560;SDS011;9927;47.792;10.616;2023-04-25T14:28:32;2.50;;;2.50;;
19560;SDS011;9927;47.792;10.616;2023-04-25T14:31:00;2.20;;;2.20;;
19560;SDS011;9927;47.792;10.616;2023-04-25T14:33:27;2.30;;;2.30;;
19560;SDS011;9927;47.792;10.616;2023-04-25T14:35:54;2.53;;;2.50;;
19560;SDS011;9927;47.792;10.616;2023-04-25T14:38:22;2.60;;;2.58;;
19560;SDS011;9927;47.792;10.616;2023-04-25T14:40:51;2.20;;;2.20;;
19560;SDS011;9927;47.792;10.616;2023-04-25T14:43:20;2.50;;;2.40;;
19560;SDS011;9927;47.792;10.616;2023-04-25T14:45:47;2.25;;;2.25;;
19560;SDS011;9927;47.792;10.616;2023-04-25T14:48:15;2.63;;;2.63;;
19560;SDS011;9927;47.792;10.616;2023-04-25T14:50:47;2.80;;;2.60;;
19560;SDS011;9927;47.792;10.616;2023-04-25T14:53:14;2.80;;;2.70;;
19560;SDS011;9927;47.792;10.616;2023-04-25T14:55:42;2.58;;;2.58;;
19560;SDS011;9927;47.792;10.616;2023-04-25T14:58:09;3.00;;;2.80;;
19560;SDS011;9927;47.792;10.616;2023-04-25T15:00:36;3.55;;;3.22;;
19560;SDS011;9927;47.792;10.616;2023-04-25T15:03:04;3.05;;;2.95;;
19560;SDS011;9927;47.792;10.616;2023-04-25T15:05:31;3.67;;;3.47;;
19560;SDS011;9927;47.792;10.616;2023-04-25T15:07:58;3.47;;;3.28;;
19560;SDS011;9927;47.792;10.616;2023-04-25T15:10:26;3.83;;;3.63;;
19560;SDS011;9927;47.792;10.616;2023-04-25T15:12:54;2.95;;;2.85;;
19560;SDS011;9927;47.792;10.616;2023-04-25T15:15:22;3.25;;;3.15;;
19560;SDS011;9927;47.792;10.616;2023-04-25T15:17:52;3.00;;;2.90;;
19560;SDS011;9927;47.792;10.616;2023-04-25T15:20:25;3.03;;;2.92;;
19560;SDS011;9927;47.792;10.616;2023-04-25T15:22:53;2.85;;;2.75;;
19560;SDS011;9927;47.792;10.616;2023-04-25T15:25:21;2.95;;;2.85;;
19560;SDS011;9927;47.792;10.616;2023-04-25T15:27:48;3.25;;;3.15;;
19560;SDS011;9927;47.792;10.616;2023-04-25T15:30:16;3.10;;;3.00;;
19560;SDS011;9927;47.792;10.616;2023-04-25T15:32:44;2.80;;;2.70;;
19560;SDS011;9927;47.792;10.616;2023-04-25T15:35:13;2.55;;;2.55;;
19560;SDS011;9927;47.792;10.616;2023-04-25T15:37:43;2.80;;;2.70;;
19560;SDS011;9927;47.792;10.616;2023-04-25T15:40:13;3.75;;;3.45;;
19560;SDS011;9927;47.792;10.616;2023-04-25T15:42:42;2.70;;;2.60;;
19560;SDS011;9927;47.792;10.616;2023-04-25T15:45:14;3.23;;;3.13;;
19560;SDS011;9927;47.792;10.616;2023-04-25T15:47:43;2.90;;;2.80;;
19560;SDS011;9927;47.792;10.616;2023-04-25T15:50:11;2.90;;;2.80;;
19560;SDS011;9927;47.792;10.616;2023-04-25T15:52:40;2.78;;;2.67;;
19560;SDS011;9927;47.792;10.616;2023-04-25T15:55:07;2.65;;;2.65;;
19560;SDS011;9927;47.792;10.616;2023-04-25T15:57:36;3.00;;;2.90;;
19560;SDS011;9927;47.792;10.616;2023-04-25T16:00:04;3.00;;;2.90;;
19560;SDS011;9927;47.792;10.616;2023-04-25T16:02:50;2.80;;;2.70;;
19560;SDS011;9927;47.792;10.616;2023-04-25T16:05:18;3.05;;;2.90;;
19560;SDS011;9927;47.792;10.616;2023-04-25T16:07:46;3.15;;;3.05;;
19560;SDS011;9927;47.792;10.616;2023-04-25T16:10:13;3.70;;;3.50;;
19560;SDS011;9927;47.792;10.616;2023-04-25T16:12:47;3.13;;;3.03;;
19560;SDS011;9927;47.792;10.616;2023-04-25T16:15:15;3.40;;;3.30;;
19560;SDS011;9927;47.792;10.616;2023-04-25T16:17:43;3.75;;;3.55;;
19560;SDS011;9927;47.792;10.616;2023-04-25T16:20:10;3.78;;;3.58;;
19560;SDS011;9927;47.792;10.616;2023-04-25T16:22:39;3.30;;;3.20;;
19560;SDS011;9927;47.792;10.616;2023-04-25T16:25:08;3.20;;;3.10;;
19560;SDS011;9927;47.792;10.616;2023-04-25T16:27:36;3.10;;;3.00;;
19560;SDS011;9927;47.792;10.616;2023-04-25T16:30:06;3.45;;;3.35;;
19560;SDS011;9927;47.792;10.616;2023-04-25T16:32:35;3.17;;;3.00;;
19560;SDS011;9927;47.792;10.616;2023-04-25T16:35:02;2.90;;;2.85;;
19560;SDS011;9927;47.792;10.616;2023-04-25T16:37:29;2.90;;;2.80;;
19560;SDS011;9927;47.792;10.616;2023-04-25T16:39:57;2.55;;;2.55;;
19560;SDS011;9927;47.792;10.616;2023-04-25T16:42:24;3.15;;;3.05;;
19560;SDS011;9927;47.792;10.616;2023-04-25T16:44:51;3.08;;;2.97;;
19560;SDS011;9927;47.792;10.616;2023-04-25T16:47:18;3.20;;;3.10;;
19560;SDS011;9927;47.792;10.616;2023-04-25T16:49:46;3.28;;;3.08;;
19560;SDS011;9927;47.792;10.616;2023-04-25T16:52:13;3.20;;;3.10;;
19560;SDS011;9927;47.792;10.616;2023-04-25T16:54:41;3.17;;;3.08;;
19560;SDS011;9927;47.792;10.616;2023-04-25T16:57:09;3.15;;;3.05;;
19560;SDS011;9927;47.792;10.616;2023-04-25T16:59:37;3.10;;;3.00;;
19560;SDS011;9927;47.792;10.616;2023-04-25T17:02:05;3.23;;;3.10;;
19560;SDS011;9927;47.792;10.616;2023-04-25T17:04:36;2.90;;;2.80;;
19560;SDS011;9927;47.792;10.616;2023-04-25T17:07:03;3.40;;;3.30;;
19560;SDS011;9927;47.792;10.616;2023-04-25T17:09:31;3.30;;;3.20;;
19560;SDS011;9927;47.792;10.616;2023-04-25T17:11:58;3.17;;;3.08;;
19560;SDS011;9927;47.792;10.616;2023-04-25T17:14:25;3.10;;;3.00;;
19560;SDS011;9927;47.792;10.616;2023-04-25T17:16:53;3.85;;;3.65;;
19560;SDS011;9927;47.792;10.616;2023-04-25T17:19:20;3.80;;;3.60;;
19560;SDS011;9927;47.792;10.616;2023-04-25T17:21:47;3.70;;;3.50;;
19560;SDS011;9927;47.792;10.616;2023-04-25T17:24:15;3.55;;;3.45;;
19560;SDS011;9927;47.792;10.616;2023-04-25T17:26:43;3.53;;;3.33;;
19560;SDS011;9927;47.792;10.616;2023-04-25T17:29:14;3.77;;;3.57;;
19560;SDS011;9927;47.792;10.616;2023-04-25T17:31:42;3.20;;;3.10;;
19560;SDS011;9927;47.792;10.616;2023-04-25T17:34:10;3.97;;;3.78;;
19560;SDS011;9927;47.792;10.616;2023-04-25T17:36:37;4.00;;;3.80;;
19560;SDS011;9927;47.792;10.616;2023-04-25T17:39:04;6.33;;;5.93;;
19560;SDS011;9927;47.792;10.616;2023-04-25T17:41:33;10.05;;;9.25;;
19560;SDS011;9927;47.792;10.616;2023-04-25T17:44:00;6.82;;;6.32;;
19560;SDS011;9927;47.792;10.616;2023-04-25T17:46:27;3.70;;;3.40;;
19560;SDS011;9927;47.792;10.616;2023-04-25T17:48:55;3.20;;;3.10;;
19560;SDS011;9927;47.792;10.616;2023-04-25T17:51:27;3.10;;;3.00;;
19560;SDS011;9927;47.792;10.616;2023-04-25T17:53:54;3.63;;;3.43;;
19560;SDS011;9927;47.792;10.616;2023-04-25T17:56:21;6.60;;;6.00;;
19560;SDS011;9927;47.792;10.616;2023-04-25T17:58:53;5.70;;;5.30;;
19560;SDS011;9927;47.792;10.616;2023-04-25T18:01:21;4.30;;;3.90;;
19560;SDS011;9927;47.792;10.616;2023-04-25T18:03:49;4.13;;;3.88;;
19560;SDS011;9927;47.792;10.616;2023-04-25T18:06:17;4.80;;;4.40;;